Hamburg-Fuhlsbuettel, Germany (EDDH) 53-38N 010-00E 15M
Jun 24, 2019 - 01:20 PM EDT / 2019.06.24 1720 UTC
Wind: from the ENE (060 degrees) at 13 MPH (11 KT):0
Visibility: greater than 7 mile(s):0
Temperature: 77 F (25 C)
Dew Point: 60 F (16 C)
Relative Humidity: 57%
Pressure (altimeter): 30.18 in. Hg (1022 hPa)
ob: EDDH 241720Z 06011KT CAVOK 25/16 Q1022 NOSIG
cycle: 17